Time;durP1;ratioP1;P1;durP2;ratioP2;P2;SDS_P1;SDS_P2;PMS_P1;PMS_P2;Temp;Humidity;BMP_temperature;BMP_pressure;BME280_temperature;BME280_humidity;BME280_pressure;Samples;Min_cycle;Max_cycle;Signal;HPM_P1;HPM_P2
2022/01/29 00:01:08;;;;;;;14.10;6.80;;;2.30;99.90;;;;;;5092448;28;20294;-67
2022/01/29 00:03:35;;;;;;;16.83;7.47;;;2.30;99.90;;;;;;5090852;28;20223;-67
2022/01/29 00:06:02;;;;;;;14.27;7.53;;;2.30;99.90;;;;;;5092251;28;20180;-67
2022/01/29 00:08:28;;;;;;;17.73;8.03;;;2.30;99.90;;;;;;5091773;28;20223;-67
2022/01/29 00:11:00;;;;;;;19.83;8.17;;;2.50;99.90;;;;;;5091908;28;20256;-67
2022/01/29 00:13:26;;;;;;;16.70;8.10;;;2.30;99.90;;;;;;5091872;28;20544;-67
2022/01/29 00:15:51;;;;;;;17.47;7.47;;;2.40;99.90;;;;;;5092130;28;20172;-67
2022/01/29 00:18:17;;;;;;;14.40;7.37;;;2.40;99.90;;;;;;5090800;28;20674;-67
2022/01/29 00:20:43;;;;;;;13.73;7.60;;;2.40;99.90;;;;;;5092063;28;20192;-67
2022/01/29 00:23:09;;;;;;;17.80;7.20;;;2.40;99.90;;;;;;5090387;28;20183;-67
2022/01/29 00:25:34;;;;;;;16.20;7.77;;;2.40;99.90;;;;;;5091940;28;20642;-67
2022/01/29 00:28:00;;;;;;;13.48;6.97;;;2.40;99.90;;;;;;5091220;28;20265;-67
2022/01/29 00:30:32;;;;;;;16.88;7.38;;;2.50;99.90;;;;;;5091774;28;20191;-66
2022/01/29 00:32:57;;;;;;;17.73;7.10;;;2.50;99.90;;;;;;5092000;28;20569;-67
2022/01/29 00:35:23;;;;;;;21.15;7.53;;;2.50;99.90;;;;;;5091085;28;20233;-67
2022/01/29 00:37:48;;;;;;;14.67;6.87;;;2.50;99.90;;;;;;5091819;28;20183;-67
2022/01/29 00:40:14;;;;;;;20.07;7.90;;;2.40;99.90;;;;;;5124560;28;20180;-67
2022/01/29 00:42:40;;;;;;;13.93;6.82;;;2.40;99.90;;;;;;5091939;28;20160;-67
2022/01/29 00:45:06;;;;;;;16.38;7.05;;;2.40;99.90;;;;;;5090437;28;20662;-67
2022/01/29 00:47:33;;;;;;;16.60;7.40;;;2.40;99.90;;;;;;5091496;28;20191;-67
2022/01/29 00:49:58;;;;;;;14.13;6.87;;;2.40;99.90;;;;;;5091781;28;20192;-66
2022/01/29 00:52:24;;;;;;;14.63;7.17;;;2.40;99.90;;;;;;5090176;28;20267;-67
2022/01/29 00:54:50;;;;;;;12.90;7.17;;;2.40;99.90;;;;;;5090338;28;20216;-67
2022/01/29 00:57:16;;;;;;;15.27;7.17;;;2.40;99.90;;;;;;5091550;28;20183;-66
2022/01/29 00:59:41;;;;;;;16.37;7.40;;;2.40;99.90;;;;;;5091739;28;20187;-67
2022/01/29 01:02:09;;;;;;;15.10;7.50;;;2.40;99.90;;;;;;5091605;28;20198;-67
2022/01/29 01:04:38;;;;;;;19.80;8.20;;;2.40;99.90;;;;;;5091355;28;20624;-66
2022/01/29 01:07:08;;;;;;;17.47;7.97;;;2.40;99.90;;;;;;5089537;28;20711;-66
2022/01/29 01:09:34;;;;;;;17.87;8.87;;;2.40;99.90;;;;;;5090740;28;20219;-66
2022/01/29 01:11:59;;;;;;;17.80;7.90;;;2.40;99.90;;;;;;5089928;28;20686;-66
2022/01/29 01:14:25;;;;;;;19.27;8.00;;;2.40;99.90;;;;;;5091722;28;20184;-66
2022/01/29 01:16:51;;;;;;;17.17;7.90;;;2.40;99.90;;;;;;5091236;28;20574;-67
2022/01/29 01:19:16;;;;;;;18.47;8.43;;;2.40;99.90;;;;;;5091668;28;20180;-67
2022/01/29 01:21:42;;;;;;;18.50;8.50;;;2.40;99.90;;;;;;5091155;28;20180;-66
2022/01/29 01:24:08;;;;;;;17.27;7.93;;;2.40;99.90;;;;;;5091438;28;20233;-66
2022/01/29 01:26:34;;;;;;;18.87;8.30;;;2.40;99.90;;;;;;5091089;28;20267;-66
2022/01/29 01:29:00;;;;;;;18.23;8.73;;;2.40;99.90;;;;;;5090949;28;20214;-66
2022/01/29 01:31:25;;;;;;;18.90;8.77;;;2.40;99.90;;;;;;5091480;28;20180;-66
2022/01/29 01:33:51;;;;;;;17.37;8.73;;;2.40;99.90;;;;;;5091170;28;20191;-66
2022/01/29 01:36:21;;;;;;;18.80;8.57;;;2.50;99.90;;;;;;5091181;28;20176;-66
2022/01/29 01:38:54;;;;;;;21.48;9.55;;;2.40;99.90;;;;;;5091091;28;20196;-66
2022/01/29 01:41:25;;;;;;;17.90;8.82;;;2.50;99.90;;;;;;5095042;28;20221;-67
2022/01/29 01:43:58;;;;;;;18.47;8.83;;;2.40;99.90;;;;;;5094881;28;20184;-66
2022/01/29 01:46:24;;;;;;;16.13;8.83;;;2.40;99.90;;;;;;5095236;28;20200;-66
2022/01/29 01:48:49;;;;;;;20.08;9.48;;;2.40;99.90;;;;;;5094426;28;20247;-66
2022/01/29 01:51:16;;;;;;;23.40;9.67;;;2.40;99.90;;;;;;5094618;28;20181;-66
2022/01/29 01:53:41;;;;;;;20.40;9.47;;;2.50;99.90;;;;;;5093575;28;20687;-66
2022/01/29 01:56:07;;;;;;;24.93;9.93;;;2.50;99.90;;;;;;5094455;28;20271;-67
2022/01/29 01:58:32;;;;;;;24.63;10.38;;;2.50;99.90;;;;;;5094731;28;20172;-66
2022/01/29 02:00:58;;;;;;;21.17;9.55;;;2.50;99.90;;;;;;5093191;28;20247;-67
2022/01/29 02:03:23;;;;;;;18.92;9.18;;;2.50;99.90;;;;;;5094459;28;20262;-67
2022/01/29 02:05:51;;;;;;;29.73;14.60;;;2.50;99.90;;;;;;5094420;28;20263;-70
2022/01/29 02:08:17;;;;;;;22.53;10.33;;;2.50;99.90;;;;;;5094422;28;20228;-67
2022/01/29 02:10:47;;;;;;;22.65;10.40;;;2.70;99.90;;;;;;5094255;28;20813;-67
2022/01/29 02:13:13;;;;;;;23.42;10.25;;;2.70;99.90;;;;;;5094261;28;20198;-67
2022/01/29 02:15:39;;;;;;;23.53;10.77;;;2.70;99.90;;;;;;5092918;28;20682;-67
2022/01/29 02:18:05;;;;;;;20.20;10.53;;;2.60;99.90;;;;;;5094377;28;20605;-67
2022/01/29 02:20:32;;;;;;;23.17;11.10;;;2.60;99.90;;;;;;5094095;28;20180;-67
2022/01/29 02:23:00;;;;;;;21.87;11.63;;;2.50;99.90;;;;;;5092620;28;20643;-67
2022/01/29 02:25:38;;;;;;;22.33;10.67;;;2.50;99.90;;;;;;5094012;28;20657;-67
2022/01/29 02:28:10;;;;;;;23.33;12.00;;;2.50;99.90;;;;;;5073848;28;20216;-67
2022/01/29 02:30:39;;;;;;;21.88;11.00;;;2.50;99.90;;;;;;5073758;28;20264;-67
2022/01/29 02:33:08;;;;;;;25.60;10.33;;;2.40;99.90;;;;;;5093927;28;20651;-67
2022/01/29 02:35:39;;;;;;;27.07;11.97;;;2.40;99.90;;;;;;5094058;28;20254;-67
2022/01/29 02:38:05;;;;;;;24.20;12.13;;;2.40;99.90;;;;;;5093578;28;20191;-67
2022/01/29 02:40:35;;;;;;;21.47;10.43;;;2.40;99.90;;;;;;5092107;28;20689;-67
2022/01/29 02:43:11;;;;;;;22.10;11.17;;;2.40;99.90;;;;;;5093809;28;20183;-67
2022/01/29 02:45:37;;;;;;;25.73;11.27;;;2.40;99.90;;;;;;5093329;28;20204;-67
2022/01/29 02:48:03;;;;;;;28.07;11.70;;;2.30;99.90;;;;;;5093309;28;20601;-67
2022/01/29 02:50:28;;;;;;;24.20;11.03;;;2.30;99.90;;;;;;5091987;28;20180;-67
2022/01/29 02:52:54;;;;;;;25.30;11.90;;;2.30;99.90;;;;;;5091108;28;20643;-67
2022/01/29 02:55:20;;;;;;;20.87;10.83;;;2.30;99.90;;;;;;5091644;28;20183;-67
2022/01/29 02:57:45;;;;;;;22.63;11.00;;;2.30;99.90;;;;;;5092052;28;20188;-67
2022/01/29 03:00:11;;;;;;;27.37;11.40;;;2.30;99.90;;;;;;5093042;28;20719;-67
2022/01/29 03:02:37;;;;;;;22.80;11.53;;;2.30;99.90;;;;;;5093043;28;20184;-67
2022/01/29 03:05:03;;;;;;;25.67;12.20;;;2.30;99.90;;;;;;5092853;28;20658;-67
2022/01/29 03:07:29;;;;;;;25.73;11.83;;;2.30;99.90;;;;;;5093245;28;20259;-67
2022/01/29 03:09:55;;;;;;;24.97;11.43;;;2.30;99.90;;;;;;5092888;28;20703;-67
2022/01/29 03:12:20;;;;;;;25.17;11.83;;;2.30;99.90;;;;;;5091185;28;20309;-67
2022/01/29 03:14:46;;;;;;;22.40;11.90;;;2.20;99.90;;;;;;5092774;28;20329;-67
2022/01/29 03:17:11;;;;;;;22.33;11.30;;;2.20;99.90;;;;;;5092794;28;20191;-67
2022/01/29 03:19:37;;;;;;;21.57;10.77;;;2.30;99.90;;;;;;5091090;28;20188;-67
2022/01/29 03:22:03;;;;;;;26.60;11.27;;;2.30;99.90;;;;;;5091593;28;20169;-67
2022/01/29 03:24:28;;;;;;;20.90;11.43;;;2.30;99.90;;;;;;5092523;28;20613;-68
2022/01/29 03:26:54;;;;;;;21.93;10.80;;;2.30;99.90;;;;;;5092659;28;20187;-68
2022/01/29 03:29:19;;;;;;;24.97;10.87;;;2.30;99.90;;;;;;5092365;28;20551;-68
2022/01/29 03:31:45;;;;;;;23.23;11.10;;;2.30;99.90;;;;;;5092667;28;20202;-68
2022/01/29 03:34:10;;;;;;;20.60;10.07;;;2.30;99.90;;;;;;5091155;28;20203;-68
2022/01/29 03:36:36;;;;;;;21.83;9.73;;;2.30;99.90;;;;;;5092517;28;20255;-67
2022/01/29 03:39:02;;;;;;;21.97;10.43;;;2.30;99.90;;;;;;5091062;28;20639;-68
2022/01/29 03:41:28;;;;;;;21.43;9.93;;;2.40;99.90;;;;;;5092602;28;20643;-68
2022/01/29 03:43:57;;;;;;;17.27;9.60;;;2.40;99.90;;;;;;5091821;28;20212;-67
2022/01/29 03:46:22;;;;;;;18.03;9.47;;;2.40;99.90;;;;;;5091993;28;20188;-67
2022/01/29 03:48:48;;;;;;;20.00;10.17;;;2.40;99.90;;;;;;5092238;28;20215;-67
2022/01/29 03:51:14;;;;;;;17.37;9.60;;;2.40;99.90;;;;;;5092456;28;20704;-68
2022/01/29 03:53:39;;;;;;;19.90;10.00;;;2.40;99.90;;;;;;5092376;28;20219;-67
2022/01/29 03:56:05;;;;;;;18.07;9.83;;;2.40;99.90;;;;;;5091340;28;20385;-68
2022/01/29 03:58:31;;;;;;;20.23;10.17;;;2.40;99.90;;;;;;5092358;28;20191;-67
2022/01/29 04:00:56;;;;;;;18.63;9.67;;;2.40;99.90;;;;;;5092483;28;20180;-67
2022/01/29 04:03:22;;;;;;;19.73;9.93;;;2.30;99.90;;;;;;5092154;28;20184;-67
2022/01/29 04:05:48;;;;;;;19.40;10.07;;;2.30;99.90;;;;;;5092462;28;20183;-67
2022/01/29 04:08:16;;;;;;;19.33;10.10;;;2.30;99.90;;;;;;5091563;28;20928;-67
2022/01/29 04:10:42;;;;;;;18.27;9.13;;;2.30;99.90;;;;;;5092490;28;20528;-67
2022/01/29 04:13:11;;;;;;;17.33;9.20;;;2.30;99.90;;;;;;5091948;28;20176;-68
2022/01/29 04:15:36;;;;;;;18.37;9.27;;;2.30;99.90;;;;;;5092025;28;20183;-67
2022/01/29 04:18:02;;;;;;;19.90;10.20;;;2.30;99.90;;;;;;5092208;28;20176;-67
2022/01/29 04:20:28;;;;;;;19.50;9.93;;;2.30;99.90;;;;;;5092269;28;20168;-67
2022/01/29 04:22:53;;;;;;;20.17;10.20;;;2.30;99.90;;;;;;5091936;28;20186;-67
2022/01/29 04:25:19;;;;;;;17.50;9.07;;;2.30;99.90;;;;;;5091721;28;20179;-67
2022/01/29 04:27:47;;;;;;;21.53;10.27;;;2.30;99.90;;;;;;5090797;28;20260;-67
2022/01/29 04:30:43;;;;;;;17.93;9.80;;;2.20;99.90;;;;;;5091575;28;20176;-68
2022/01/29 04:35:27;;;;;;;19.60;9.57;;;2.20;99.90;;;;;;5091324;28;20723;-67
2022/01/29 04:37:53;;;;;;;20.33;9.53;;;2.20;99.90;;;;;;5091241;28;20172;-67
2022/01/29 04:40:19;;;;;;;19.30;9.10;;;2.20;99.90;;;;;;5089905;28;20178;-68
2022/01/29 04:42:45;;;;;;;18.07;9.90;;;2.20;99.90;;;;;;5090914;28;20172;-67
2022/01/29 04:45:11;;;;;;;18.57;9.40;;;2.30;99.90;;;;;;5091488;28;20180;-67
2022/01/29 04:47:37;;;;;;;19.60;9.30;;;2.20;99.90;;;;;;5091876;28;20206;-67
2022/01/29 04:50:04;;;;;;;21.27;10.33;;;2.20;99.90;;;;;;5091020;28;20180;-67
2022/01/29 04:52:30;;;;;;;18.10;8.93;;;2.20;99.90;;;;;;5091623;28;20225;-67
2022/01/29 04:54:55;;;;;;;37.67;15.57;;;2.30;99.90;;;;;;5091147;28;20270;-67
2022/01/29 04:57:21;;;;;;;19.83;9.60;;;2.20;99.90;;;;;;5091462;28;20179;-67
2022/01/29 04:59:46;;;;;;;18.90;9.77;;;2.20;99.90;;;;;;5090210;28;20172;-67
2022/01/29 05:02:12;;;;;;;21.23;9.83;;;2.20;99.90;;;;;;5089615;28;20180;-67
2022/01/29 05:04:37;;;;;;;21.37;10.17;;;2.20;99.90;;;;;;5091710;28;20176;-67
2022/01/29 05:07:03;;;;;;;21.97;10.10;;;2.10;99.90;;;;;;5072483;28;20219;-68
2022/01/29 05:09:29;;;;;;;21.97;10.20;;;2.10;99.90;;;;;;5091194;28;20222;-68
2022/01/29 05:11:55;;;;;;;24.30;9.83;;;2.10;99.90;;;;;;5091479;28;20662;-68
2022/01/29 05:14:35;;;;;;;22.80;9.37;;;2.10;99.90;;;;;;5091759;28;20184;-68
2022/01/29 05:26:49;;;;;;;22.43;9.33;;;2.10;99.90;;;;;;5095538;28;20222;-67
2022/01/29 05:28:05;;;;;;;19.67;8.93;;;2.00;99.90;;;;;;5095242;28;20207;-67
2022/01/29 05:30:31;;;;;;;21.97;9.97;;;2.00;99.90;;;;;;5094923;28;20177;-67
2022/01/29 05:32:56;;;;;;;19.63;9.43;;;2.00;99.90;;;;;;5093479;28;20176;-67
2022/01/29 05:35:22;;;;;;;17.47;8.77;;;2.00;99.90;;;;;;5095067;28;20176;-67
2022/01/29 05:37:50;;;;;;;20.23;9.40;;;2.00;99.90;;;;;;5093201;28;20184;-67
2022/01/29 05:40:16;;;;;;;17.97;8.17;;;1.90;99.90;;;;;;5093722;28;20180;-67
2022/01/29 05:42:41;;;;;;;17.00;8.03;;;1.90;99.90;;;;;;5094097;28;20655;-67
2022/01/29 05:45:07;;;;;;;18.60;8.40;;;1.90;99.90;;;;;;5094965;28;20207;-67
2022/01/29 05:47:35;;;;;;;15.13;7.13;;;1.90;99.90;;;;;;5093080;28;20559;-67
2022/01/29 05:50:01;;;;;;;17.00;7.53;;;1.90;99.90;;;;;;5093336;28;20267;-67
2022/01/29 05:52:27;;;;;;;19.17;7.87;;;2.00;99.90;;;;;;5094397;28;20635;-67
2022/01/29 05:54:52;;;;;;;15.90;7.27;;;2.00;99.90;;;;;;5094338;28;20187;-68
2022/01/29 05:57:18;;;;;;;17.50;7.20;;;2.00;99.90;;;;;;5094546;28;20179;-69
2022/01/29 05:59:44;;;;;;;15.23;7.47;;;2.00;99.90;;;;;;5092705;28;20536;-69
2022/01/29 06:02:09;;;;;;;14.87;7.27;;;2.00;99.90;;;;;;5093316;28;20229;-69
2022/01/29 06:04:35;;;;;;;18.73;8.10;;;2.00;99.90;;;;;;5094160;28;20229;-69
2022/01/29 06:07:01;;;;;;;17.23;7.93;;;2.00;99.90;;;;;;5093914;28;20725;-69
2022/01/29 06:09:26;;;;;;;15.03;7.60;;;2.00;99.90;;;;;;5094175;28;20216;-69
2022/01/29 06:11:52;;;;;;;20.70;8.60;;;2.00;99.90;;;;;;5094247;28;20173;-69
2022/01/29 06:14:17;;;;;;;17.33;7.50;;;2.00;99.90;;;;;;5094111;28;20215;-69
2022/01/29 06:16:43;;;;;;;16.03;7.73;;;2.10;99.90;;;;;;5092918;28;20249;-65
2022/01/29 06:19:08;;;;;;;17.77;8.00;;;2.10;99.90;;;;;;5093081;28;20184;-67
2022/01/29 06:21:34;;;;;;;17.23;8.30;;;2.10;99.90;;;;;;5093777;28;20188;-67
2022/01/29 06:24:00;;;;;;;16.10;8.00;;;2.10;99.90;;;;;;5093948;28;20210;-67
2022/01/29 06:26:26;;;;;;;13.70;7.23;;;2.10;99.90;;;;;;5093021;28;20195;-67
2022/01/29 06:28:51;;;;;;;15.80;7.60;;;2.10;99.90;;;;;;5093899;28;20945;-66
2022/01/29 06:31:19;;;;;;;15.50;8.00;;;2.10;99.90;;;;;;5093820;28;20229;-68
2022/01/29 06:33:44;;;;;;;19.07;7.83;;;2.10;99.90;;;;;;5094234;28;20274;-67
2022/01/29 06:36:10;;;;;;;16.83;7.53;;;2.10;99.90;;;;;;5093682;28;20263;-64
2022/01/29 06:38:36;;;;;;;20.53;8.63;;;2.10;99.90;;;;;;5093848;28;20214;-64
2022/01/29 06:41:02;;;;;;;17.57;8.20;;;2.10;99.90;;;;;;5094008;28;20222;-63
2022/01/29 06:43:28;;;;;;;13.17;6.87;;;2.10;99.90;;;;;;5093743;28;20241;-63
2022/01/29 06:45:54;;;;;;;18.63;7.47;;;2.10;99.90;;;;;;5093154;28;20173;-66
2022/01/29 06:48:19;;;;;;;14.63;6.77;;;2.10;99.90;;;;;;5091951;28;20238;-66
2022/01/29 06:50:45;;;;;;;14.30;7.53;;;2.10;99.90;;;;;;5092056;28;20180;-66
2022/01/29 06:53:11;;;;;;;14.97;7.40;;;2.10;99.90;;;;;;5093644;28;20202;-66
2022/01/29 06:55:36;;;;;;;14.67;7.70;;;2.10;99.90;;;;;;5093706;28;20226;-66
2022/01/29 06:58:02;;;;;;;16.20;7.30;;;2.20;99.90;;;;;;5093467;28;20181;-65
2022/01/29 07:00:28;;;;;;;18.23;7.67;;;2.20;99.90;;;;;;5093576;28;20530;-65
2022/01/29 07:02:53;;;;;;;13.48;7.03;;;2.20;99.90;;;;;;5093450;28;20663;-66
2022/01/29 07:05:19;;;;;;;13.87;7.70;;;2.20;99.90;;;;;;5088961;28;20184;-66
2022/01/29 07:07:44;;;;;;;15.33;7.17;;;2.20;99.90;;;;;;5084273;28;20246;-66
2022/01/29 07:10:10;;;;;;;20.70;8.15;;;2.20;99.90;;;;;;5093510;28;20176;-66
2022/01/29 07:12:42;;;;;;;12.57;6.82;;;2.30;99.90;;;;;;5092998;28;20183;-66
2022/01/29 07:15:09;;;;;;;15.10;7.37;;;2.30;99.90;;;;;;5093010;28;20176;-66
2022/01/29 07:17:35;;;;;;;14.07;6.83;;;2.30;99.90;;;;;;5092396;28;20195;-66
2022/01/29 07:20:01;;;;;;;13.20;6.87;;;2.40;99.90;;;;;;5092539;28;20173;-66
2022/01/29 07:22:27;;;;;;;15.37;7.87;;;2.40;99.90;;;;;;5092403;28;20233;-66
2022/01/29 07:24:52;;;;;;;15.60;7.93;;;2.40;99.90;;;;;;5091324;28;20207;-66
2022/01/29 07:27:18;;;;;;;13.80;7.47;;;2.40;99.90;;;;;;5091793;28;20180;-66
2022/01/29 07:29:43;;;;;;;14.27;7.65;;;2.50;99.90;;;;;;5092756;28;20191;-65
2022/01/29 07:32:10;;;;;;;14.27;7.05;;;2.50;99.90;;;;;;5091753;28;20661;-65
2022/01/29 07:34:35;;;;;;;15.30;7.30;;;2.50;99.90;;;;;;5092004;28;20198;-65
2022/01/29 07:37:01;;;;;;;14.93;7.33;;;2.60;99.90;;;;;;5092402;28;20172;-65
2022/01/29 07:39:27;;;;;;;14.27;7.47;;;2.60;99.90;;;;;;5092471;28;20187;-66
2022/01/29 07:41:54;;;;;;;15.37;6.63;;;2.60;99.90;;;;;;5091694;28;20184;-65
2022/01/29 07:44:19;;;;;;;13.70;6.67;;;2.70;99.90;;;;;;5091273;28;20236;-66
2022/01/29 07:46:45;;;;;;;16.33;7.00;;;2.70;99.90;;;;;;5092569;28;20172;-66
2022/01/29 07:49:11;;;;;;;14.32;7.28;;;2.80;99.90;;;;;;5091969;28;20218;-66
2022/01/29 07:51:37;;;;;;;14.30;6.82;;;2.80;99.90;;;;;;5092580;28;20172;-65
2022/01/29 07:54:04;;;;;;;15.37;7.20;;;2.80;99.90;;;;;;5091528;28;20209;-66
2022/01/29 07:56:29;;;;;;;13.30;6.73;;;2.90;99.90;;;;;;5092629;28;20198;-65
2022/01/29 07:58:55;;;;;;;13.70;6.63;;;3.00;99.90;;;;;;5092071;28;20540;-65
2022/01/29 08:01:21;;;;;;;13.43;7.23;;;3.00;99.90;;;;;;5092203;28;20505;-65
2022/01/29 08:03:48;;;;;;;17.33;7.03;;;3.10;99.90;;;;;;5091015;28;20207;-65
2022/01/29 08:06:15;;;;;;;11.97;6.23;;;3.10;99.90;;;;;;5091374;28;20646;-66
2022/01/29 08:08:40;;;;;;;12.13;6.60;;;3.20;99.90;;;;;;5090772;28;20228;-65
2022/01/29 08:11:07;;;;;;;11.73;6.63;;;3.20;99.90;;;;;;5090396;28;20180;-66
2022/01/29 08:13:34;;;;;;;11.10;6.65;;;3.30;99.90;;;;;;5090979;28;20187;-66
2022/01/29 08:15:59;;;;;;;20.45;10.10;;;3.40;99.90;;;;;;5091000;28;20251;-66
2022/01/29 08:18:25;;;;;;;17.10;8.75;;;3.40;99.90;;;;;;5091723;28;20268;-65
2022/01/29 08:20:51;;;;;;;22.00;10.43;;;3.40;99.90;;;;;;5091558;28;20673;-65
2022/01/29 08:23:16;;;;;;;11.30;6.00;;;3.50;99.90;;;;;;5090211;28;20592;-66
2022/01/29 08:25:42;;;;;;;11.30;5.93;;;3.50;99.90;;;;;;5090919;28;20173;-64
2022/01/29 08:28:08;;;;;;;12.35;6.40;;;3.50;99.90;;;;;;5089248;28;20674;-65
2022/01/29 08:30:34;;;;;;;13.43;7.03;;;3.50;99.90;;;;;;5090140;28;20180;-65
2022/01/29 08:33:00;;;;;;;10.85;5.63;;;3.60;99.90;;;;;;5090177;28;20306;-65
2022/01/29 08:35:26;;;;;;;9.52;5.10;;;3.60;99.90;;;;;;5090523;28;20707;-65
2022/01/29 08:37:53;;;;;;;11.18;5.63;;;3.60;99.90;;;;;;5089971;28;20527;-65
2022/01/29 08:40:19;;;;;;;7.00;4.75;;;3.70;99.90;;;;;;5090773;28;20164;-66
2022/01/29 08:42:45;;;;;;;10.45;5.75;;;3.70;99.90;;;;;;5091327;28;20206;-65
2022/01/29 08:45:13;;;;;;;13.05;5.78;;;3.70;99.90;;;;;;5090367;28;21437;-65
2022/01/29 08:47:42;;;;;;;8.55;5.00;;;3.80;99.90;;;;;;5089868;28;20172;-65
2022/01/29 08:50:10;;;;;;;10.40;5.22;;;3.80;99.90;;;;;;5093589;28;20188;-65
2022/01/29 08:52:37;;;;;;;9.20;5.38;;;3.80;99.90;;;;;;5095734;28;20172;-65
2022/01/29 08:55:04;;;;;;;10.25;4.88;;;3.80;99.90;;;;;;5095419;28;20204;-65
2022/01/29 08:57:30;;;;;;;13.43;6.20;;;3.90;99.90;;;;;;5094271;28;20555;-66
2022/01/29 08:59:56;;;;;;;12.60;5.68;;;3.90;99.90;;;;;;5095268;28;20194;-65
2022/01/29 09:02:22;;;;;;;11.18;5.18;;;4.00;99.90;;;;;;5091980;28;20211;-65
2022/01/29 09:04:48;;;;;;;8.65;5.07;;;4.00;99.90;;;;;;5095835;28;20196;-65
2022/01/29 09:07:14;;;;;;;10.65;6.10;;;4.00;99.90;;;;;;5095418;28;20737;-65
2022/01/29 09:09:43;;;;;;;10.90;4.85;;;4.10;99.90;;;;;;5095753;28;20208;-64
2022/01/29 09:12:10;;;;;;;12.68;5.38;;;4.10;99.90;;;;;;5095592;28;20179;-64
2022/01/29 09:14:35;;;;;;;8.10;4.55;;;4.10;99.90;;;;;;5095292;28;20192;-64
2022/01/29 09:17:01;;;;;;;8.90;5.38;;;4.10;99.90;;;;;;5095628;28;20161;-65
2022/01/29 09:19:27;;;;;;;8.48;4.60;;;4.20;99.90;;;;;;5095545;28;20176;-65
2022/01/29 09:21:52;;;;;;;8.25;4.65;;;4.20;99.90;;;;;;5095191;28;20191;-65
2022/01/29 09:24:18;;;;;;;8.82;5.00;;;4.30;99.90;;;;;;5095440;28;20164;-65
2022/01/29 09:26:44;;;;;;;11.38;5.40;;;4.40;99.90;;;;;;5095443;28;20682;-65
2022/01/29 09:29:10;;;;;;;9.32;5.25;;;4.40;99.90;;;;;;5095179;28;20251;-65
2022/01/29 09:31:35;;;;;;;8.70;4.93;;;4.60;99.90;;;;;;5094802;28;20188;-62
2022/01/29 09:34:02;;;;;;;9.23;4.75;;;4.70;99.90;;;;;;5095117;28;20198;-64
2022/01/29 09:36:28;;;;;;;9.43;5.30;;;4.70;99.90;;;;;;5095292;28;20194;-65
2022/01/29 09:38:53;;;;;;;10.35;5.70;;;4.70;99.90;;;;;;5094892;28;20195;-64
2022/01/29 09:41:26;;;;;;;9.80;4.97;;;4.60;99.90;;;;;;5094801;28;20180;-64
2022/01/29 09:43:53;;;;;;;12.35;5.68;;;4.60;99.90;;;;;;5093564;28;20180;-65
2022/01/29 09:46:18;;;;;;;7.43;4.45;;;4.60;99.90;;;;;;5094954;28;20184;-64
2022/01/29 09:48:45;;;;;;;10.55;4.78;;;4.60;99.90;;;;;;5094681;28;20211;-64
2022/01/29 09:51:14;;;;;;;12.10;5.15;;;4.60;99.90;;;;;;5094737;28;20183;-64
2022/01/29 09:53:43;;;;;;;9.77;5.32;;;4.60;99.90;;;;;;5094932;28;20184;-64
2022/01/29 09:56:12;;;;;;;10.45;5.55;;;4.60;99.90;;;;;;5094357;28;20176;-64
2022/01/29 09:58:38;;;;;;;10.15;5.22;;;4.60;99.90;;;;;;5094686;28;20723;-64
2022/01/29 10:01:04;;;;;;;9.13;5.07;;;4.60;99.90;;;;;;5094566;28;20172;-63
2022/01/29 10:03:30;;;;;;;9.80;5.30;;;4.60;99.90;;;;;;5094394;28;20180;-64
2022/01/29 10:06:00;;;;;;;10.57;5.43;;;4.50;99.90;;;;;;5094261;28;20250;-63
2022/01/29 10:08:27;;;;;;;10.55;5.38;;;4.50;99.90;;;;;;5094184;28;20722;-64
2022/01/29 10:10:55;;;;;;;8.75;5.35;;;4.50;99.90;;;;;;5093913;28;20195;-65
2022/01/29 10:13:36;;;;;;;8.07;5.25;;;4.50;99.90;;;;;;5094330;28;20191;-64
2022/01/29 10:16:11;;;;;;;13.52;5.53;;;4.60;99.90;;;;;;5094598;28;20183;-64
2022/01/29 10:18:39;;;;;;;10.98;5.18;;;4.60;99.90;;;;;;5094215;28;20211;-64
2022/01/29 10:21:24;;;;;;;7.45;4.80;;;4.60;99.90;;;;;;5092703;28;20172;-64
2022/01/29 10:24:01;;;;;;;11.10;5.32;;;4.60;99.90;;;;;;5091404;28;20175;-64
2022/01/29 10:26:29;;;;;;;10.50;5.07;;;4.50;99.90;;;;;;5092893;28;20539;-64
2022/01/29 10:28:56;;;;;;;8.30;4.80;;;4.50;99.90;;;;;;5093928;28;20220;-64
2022/01/29 10:31:21;;;;;;;17.00;8.30;;;4.50;99.90;;;;;;5092980;28;20534;-64
2022/01/29 10:33:47;;;;;;;112.68;45.90;;;4.50;99.90;;;;;;5092882;28;20176;-64
2022/01/29 10:36:22;;;;;;;22.08;11.07;;;4.50;99.90;;;;;;5094006;28;20168;-64
2022/01/29 10:38:51;;;;;;;15.98;7.55;;;4.50;99.90;;;;;;5094064;28;20704;-64
2022/01/29 10:41:23;;;;;;;12.02;6.07;;;4.50;99.90;;;;;;5093941;28;20203;-64
2022/01/29 10:44:08;;;;;;;20.55;9.07;;;4.50;99.90;;;;;;5094073;28;20172;-65
2022/01/29 10:46:34;;;;;;;11.45;5.78;;;4.50;99.90;;;;;;5093980;28;20202;-64
2022/01/29 10:49:00;;;;;;;10.23;5.35;;;4.50;99.90;;;;;;5093839;28;20212;-64
2022/01/29 10:51:26;;;;;;;9.65;5.75;;;4.50;99.90;;;;;;5093842;28;20224;-64
2022/01/29 10:53:53;;;;;;;9.48;5.32;;;4.50;99.90;;;;;;5092876;28;20183;-64
2022/01/29 10:56:22;;;;;;;7.75;4.53;;;4.50;99.90;;;;;;5092535;28;20180;-64
2022/01/29 10:58:50;;;;;;;11.95;6.00;;;4.50;99.90;;;;;;5092531;28;20172;-65
2022/01/29 11:01:17;;;;;;;9.38;5.70;;;4.50;99.90;;;;;;5093593;28;20662;-64
2022/01/29 11:03:43;;;;;;;9.15;5.72;;;4.50;99.90;;;;;;5093746;28;20172;-64
2022/01/29 11:06:12;;;;;;;11.00;5.93;;;4.50;99.90;;;;;;5093492;28;20255;-64
2022/01/29 11:08:39;;;;;;;6.75;4.20;;;4.50;99.90;;;;;;5093303;28;20239;-64
2022/01/29 11:11:05;;;;;;;7.20;4.25;;;4.50;99.90;;;;;;5092806;28;20226;-63
2022/01/29 11:13:31;;;;;;;7.28;4.55;;;4.50;99.90;;;;;;5092514;28;20543;-64
2022/01/29 11:15:57;;;;;;;8.75;4.53;;;4.50;99.90;;;;;;5092872;28;20172;-63
2022/01/29 11:18:26;;;;;;;8.63;4.38;;;4.50;99.90;;;;;;5091928;28;20176;-64
2022/01/29 11:20:52;;;;;;;6.82;4.43;;;4.50;99.90;;;;;;5093046;28;20542;-64
2022/01/29 11:23:19;;;;;;;6.50;3.90;;;4.50;99.90;;;;;;5093024;28;20176;-63
2022/01/29 11:25:45;;;;;;;10.30;4.50;;;4.50;99.90;;;;;;5093301;28;20198;-63
2022/01/29 11:28:16;;;;;;;7.80;4.25;;;4.60;99.90;;;;;;5092999;28;20239;-63
2022/01/29 11:30:43;;;;;;;10.20;5.28;;;4.60;99.90;;;;;;5092908;28;20281;-64
2022/01/29 11:33:09;;;;;;;39.25;19.63;;;4.70;99.90;;;;;;5092586;28;20188;-62
2022/01/29 11:35:56;;;;;;;7.35;3.83;;;5.20;99.90;;;;;;5092802;28;20209;-63
2022/01/29 11:38:32;;;;;;;7.40;3.58;;;5.30;99.90;;;;;;5091347;28;20272;-62
2022/01/29 11:41:03;;;;;;;28.35;13.52;;;5.10;99.90;;;;;;5092699;28;20691;-61
2022/01/29 11:43:37;;;;;;;34.47;17.65;;;5.10;99.90;;;;;;5092601;28;20184;-61
2022/01/29 11:46:29;;;;;;;5.50;3.42;;;6.20;99.90;;;;;;5092389;28;20172;-63
2022/01/29 11:48:56;;;;;;;5.30;3.30;;;6.90;99.90;;;;;;5092152;28;20215;-64
2022/01/29 11:51:47;;;;;;;6.43;3.40;;;6.50;99.90;;;;;;5091829;28;20528;-63
2022/01/29 11:54:21;;;;;;;6.60;3.72;;;5.80;99.90;;;;;;5072181;28;20175;-63
2022/01/29 11:56:48;;;;;;;9.05;5.05;;;5.40;99.90;;;;;;5079296;28;20172;-62
2022/01/29 11:59:19;;;;;;;5.85;3.58;;;5.20;99.90;;;;;;5090956;28;20187;-61
2022/01/29 12:01:52;;;;;;;9.35;5.20;;;5.00;99.90;;;;;;5091982;28;20202;-61
2022/01/29 12:04:19;;;;;;;7.20;4.00;;;4.90;99.90;;;;;;5092017;28;20424;-63
2022/01/29 12:07:28;;;;;;;6.10;3.63;;;4.90;99.90;;;;;;5090787;28;20175;-65
2022/01/29 12:10:07;;;;;;;17.83;11.00;;;4.80;99.90;;;;;;5091799;28;20265;-61
2022/01/29 12:12:35;;;;;;;7.97;4.30;;;4.80;99.90;;;;;;5092411;28;20179;-61
2022/01/29 12:15:09;;;;;;;5.65;4.13;;;4.80;99.90;;;;;;5092309;28;20200;-61
2022/01/29 12:18:00;;;;;;;6.18;4.07;;;4.80;99.90;;;;;;5092367;28;20168;-61
2022/01/29 12:20:27;;;;;;;4.95;2.80;;;4.80;99.90;;;;;;5092238;28;20569;-60
2022/01/29 12:22:58;;;;;;;5.75;2.97;;;4.80;99.90;;;;;;5092253;28;20176;-64
2022/01/29 12:25:28;;;;;;;6.35;3.30;;;4.80;99.90;;;;;;5091864;28;20653;-63
2022/01/29 12:28:06;;;;;;;4.47;2.92;;;4.80;99.90;;;;;;5091994;28;20196;-62
2022/01/29 12:30:36;;;;;;;4.40;2.67;;;4.90;99.90;;;;;;5092328;28;20175;-62
2022/01/29 12:33:09;;;;;;;3.97;2.65;;;4.80;99.90;;;;;;5090877;28;20199;-61
2022/01/29 12:35:36;;;;;;;7.82;3.65;;;4.90;99.90;;;;;;5092419;28;20214;-62
2022/01/29 12:38:06;;;;;;;4.78;3.03;;;5.00;99.90;;;;;;5092276;28;20260;-61
2022/01/29 12:40:38;;;;;;;4.47;3.17;;;5.00;99.90;;;;;;5092526;28;20188;-61
2022/01/29 12:43:21;;;;;;;6.55;3.10;;;5.00;99.90;;;;;;5092390;28;20172;-62
2022/01/29 12:45:47;;;;;;;5.05;2.80;;;5.00;99.90;;;;;;5092364;28;20172;-62
2022/01/29 12:48:14;;;;;;;6.78;3.10;;;5.00;99.90;;;;;;5092215;28;20627;-61
2022/01/29 12:50:41;;;;;;;4.03;2.67;;;5.00;99.90;;;;;;5092361;28;20184;-61
2022/01/29 12:53:19;;;;;;;4.72;2.72;;;5.00;99.90;;;;;;5092123;28;20655;-62
2022/01/29 12:56:07;;;;;;;4.15;2.92;;;5.00;99.90;;;;;;5091099;28;20184;-62
2022/01/29 12:58:35;;;;;;;3.88;2.65;;;5.10;99.90;;;;;;5092256;28;20178;-62
2022/01/29 13:01:15;;;;;;;4.50;2.80;;;5.10;99.90;;;;;;5092106;28;20176;-62